LZB2203 LBBG-LBSF
Flight info
| Callsign | LZB2203 |
|---|---|
| Flight time | N/A |
| Altitude | 24000 |
| Route | BAKLO DCT BABOK DCT AKIRU |
| Aircraft | BCS3/M-SBDE2E3GIRWXY/LB1 |
Departure
| Time | 2026-04-29 12:41 |
|---|---|
| Airport | Burgas Airport (LBBG) |
Arrival
| Time | N/A |
|---|---|
| Airport | Sofia Airport (LBSF) |
| Time | Latitude | Longitude | Altitude | Speed | Heading |
|---|---|---|---|---|---|
| 2026-04-29 12:25 | 42.56690 | 27.51475 | 139 ft | 0 kts | 187° |
| 2026-04-29 12:37 | 42.56679 | 27.51474 | 139 ft | 7 kts | 184° |
| 2026-04-29 12:38 | 42.56612 | 27.51461 | 138 ft | 13 kts | 200° |
| 2026-04-29 12:38 | 42.56535 | 27.51359 | 137 ft | 22 kts | 231° |
| 2026-04-29 12:38 | 42.56296 | 27.50994 | 133 ft | 59 kts | 227° |
| 2026-04-29 12:38 | 42.56087 | 27.50678 | 127 ft | 37 kts | 228° |
| 2026-04-29 12:39 | 42.55945 | 27.50465 | 127 ft | 26 kts | 228° |
| 2026-04-29 12:39 | 42.55905 | 27.50302 | 124 ft | 15 kts | 306° |
| 2026-04-29 12:39 | 42.55959 | 27.50221 | 121 ft | 9 kts | 325° |
| 2026-04-29 12:39 | 42.56007 | 27.50217 | 124 ft | 5 kts | 19° |
| 2026-04-29 12:40 | 42.56025 | 27.50228 | 124 ft | 0 kts | 27° |
| 2026-04-29 12:40 | 42.56030 | 27.50232 | 124 ft | 2 kts | 28° |
| 2026-04-29 12:40 | 42.56066 | 27.50270 | 125 ft | 16 kts | 41° |
| 2026-04-29 12:40 | 42.56328 | 27.50616 | 132 ft | 90 kts | 44° |
| 2026-04-29 12:41 | 42.56956 | 27.51441 | 156 ft | 158 kts | 45° |
| 2026-04-29 12:41 | 42.57860 | 27.52609 | 521 ft | 196 kts | 46° |
| 2026-04-29 12:41 | 42.58956 | 27.53890 | 979 ft | 229 kts | 35° |
| 2026-04-29 12:41 | 42.60465 | 27.54647 | 1587 ft | 235 kts | 6° |
| 2026-04-29 12:42 | 42.62132 | 27.54573 | 2403 ft | 244 kts | 354° |
| 2026-04-29 12:42 | 42.63268 | 27.54387 | 3029 ft | 250 kts | 352° |
| 2026-04-29 12:42 | 42.64977 | 27.54073 | 3971 ft | 256 kts | 350° |
| 2026-04-29 12:42 | 42.67353 | 27.53505 | 5310 ft | 259 kts | 343° |
| 2026-04-29 12:43 | 42.68535 | 27.53062 | 5991 ft | 259 kts | 342° |
| 2026-04-29 12:43 | 42.70276 | 27.52499 | 6902 ft | 261 kts | 346° |
| 2026-04-29 12:43 | 42.72065 | 27.52002 | 7596 ft | 265 kts | 346° |
| 2026-04-29 12:43 | 42.73877 | 27.51463 | 8417 ft | 267 kts | 344° |
| 2026-04-29 12:44 | 42.75701 | 27.50890 | 9253 ft | 270 kts | 344° |
| 2026-04-29 12:44 | 42.77545 | 27.50323 | 10071 ft | 273 kts | 345° |
| 2026-04-29 12:44 | 42.79431 | 27.49761 | 10471 ft | 290 kts | 344° |
| 2026-04-29 12:44 | 42.81472 | 27.49131 | 10718 ft | 310 kts | 344° |
| 2026-04-29 12:45 | 42.83638 | 27.48466 | 10993 ft | 327 kts | 344° |
| 2026-04-29 12:45 | 42.85898 | 27.47785 | 11375 ft | 338 kts | 344° |
| 2026-04-29 12:45 | 42.88221 | 27.47028 | 11793 ft | 346 kts | 340° |
| 2026-04-29 12:45 | 42.90356 | 27.45520 | 11967 ft | 350 kts | 309° |
| 2026-04-29 12:46 | 42.91090 | 27.42556 | 12796 ft | 338 kts | 275° |
| 2026-04-29 12:46 | 42.91039 | 27.39241 | 12527 ft | 355 kts | 267° |
| 2026-04-29 12:46 | 42.90926 | 27.35890 | 12281 ft | 352 kts | 271° |
| 2026-04-29 12:46 | 42.90827 | 27.32544 | 12172 ft | 353 kts | 266° |
| 2026-04-29 12:47 | 42.90577 | 27.29213 | 12128 ft | 353 kts | 265° |
| 2026-04-29 12:47 | 42.90295 | 27.25933 | 12091 ft | 345 kts | 264° |
| 2026-04-29 12:47 | 42.89999 | 27.22642 | 12079 ft | 352 kts | 264° |
| 2026-04-29 12:47 | 42.89694 | 27.19328 | 12074 ft | 351 kts | 264° |
| 2026-04-29 12:48 | 42.89386 | 27.16012 | 12069 ft | 352 kts | 264° |
| 2026-04-29 12:48 | 42.89075 | 27.12694 | 12075 ft | 353 kts | 264° |
| 2026-04-29 12:48 | 42.88763 | 27.09379 | 12072 ft | 353 kts | 264° |
| 2026-04-29 12:48 | 42.88450 | 27.06075 | 12403 ft | 348 kts | 264° |
| 2026-04-29 12:49 | 42.88132 | 27.02802 | 12879 ft | 349 kts | 264° |
| 2026-04-29 12:49 | 42.87806 | 26.99505 | 13358 ft | 352 kts | 264° |
| 2026-04-29 12:49 | 42.87473 | 26.96190 | 13827 ft | 354 kts | 263° |
| 2026-04-29 12:49 | 42.87145 | 26.92899 | 14256 ft | 356 kts | 264° |
| 2026-04-29 12:50 | 42.86804 | 26.89547 | 14691 ft | 358 kts | 263° |
| 2026-04-29 12:50 | 42.86457 | 26.86167 | 15132 ft | 360 kts | 263° |
| 2026-04-29 12:50 | 42.86104 | 26.82795 | 15580 ft | 361 kts | 263° |
| 2026-04-29 12:50 | 42.85744 | 26.79402 | 16033 ft | 361 kts | 263° |
| 2026-04-29 12:51 | 42.85380 | 26.76015 | 16497 ft | 361 kts | 263° |
| 2026-04-29 12:51 | 42.85012 | 26.72632 | 16964 ft | 361 kts | 263° |
| 2026-04-29 12:51 | 42.84638 | 26.69239 | 17430 ft | 361 kts | 263° |
| 2026-04-29 12:51 | 42.84262 | 26.65861 | 17922 ft | 360 kts | 263° |
| 2026-04-29 12:52 | 42.83883 | 26.62489 | 18406 ft | 359 kts | 263° |
| 2026-04-29 12:52 | 42.83499 | 26.59128 | 18836 ft | 358 kts | 263° |
| 2026-04-29 12:52 | 42.83107 | 26.55779 | 19260 ft | 357 kts | 263° |
| 2026-04-29 12:52 | 42.82709 | 26.52422 | 19696 ft | 359 kts | 263° |
| 2026-04-29 12:53 | 42.82305 | 26.49061 | 20136 ft | 361 kts | 263° |
| 2026-04-29 12:53 | 42.81893 | 26.45684 | 20587 ft | 362 kts | 263° |
| 2026-04-29 12:53 | 42.81475 | 26.42300 | 21044 ft | 362 kts | 263° |
| 2026-04-29 12:53 | 42.81050 | 26.38948 | 21478 ft | 363 kts | 263° |
| 2026-04-29 12:54 | 42.80607 | 26.35561 | 21957 ft | 363 kts | 263° |
| 2026-04-29 12:54 | 42.80156 | 26.32178 | 22430 ft | 363 kts | 263° |
| 2026-04-29 12:54 | 42.79698 | 26.28808 | 22920 ft | 362 kts | 263° |
| 2026-04-29 12:54 | 42.79234 | 26.25452 | 23412 ft | 361 kts | 263° |
| 2026-04-29 12:55 | 42.78760 | 26.22091 | 23871 ft | 360 kts | 263° |
| 2026-04-29 12:55 | 42.78281 | 26.18748 | 24295 ft | 358 kts | 263° |
| 2026-04-29 12:55 | 42.77803 | 26.15432 | 24721 ft | 356 kts | 263° |
| 2026-04-29 12:55 | 42.77323 | 26.12120 | 25155 ft | 354 kts | 263° |
| 2026-04-29 12:56 | 42.76844 | 26.08837 | 25570 ft | 353 kts | 263° |
| 2026-04-29 12:56 | 42.76365 | 26.05587 | 25772 ft | 357 kts | 263° |
| 2026-04-29 12:56 | 42.75874 | 26.02245 | 25869 ft | 363 kts | 263° |
| 2026-04-29 12:56 | 42.75375 | 25.98839 | 25924 ft | 371 kts | 263° |
| 2026-04-29 12:57 | 42.74868 | 25.95365 | 25949 ft | 378 kts | 263° |
| 2026-04-29 12:57 | 42.74351 | 25.91815 | 25965 ft | 386 kts | 263° |
| 2026-04-29 12:57 | 42.73817 | 25.88151 | 25940 ft | 393 kts | 262° |
| 2026-04-29 12:57 | 42.73291 | 25.84530 | 25960 ft | 399 kts | 262° |
| 2026-04-29 12:58 | 42.72752 | 25.80806 | 25962 ft | 404 kts | 262° |
| 2026-04-29 12:58 | 42.72206 | 25.77028 | 25953 ft | 409 kts | 262° |
| 2026-04-29 12:58 | 42.71653 | 25.73207 | 25964 ft | 414 kts | 262° |
| 2026-04-29 12:58 | 42.71096 | 25.69349 | 25969 ft | 418 kts | 262° |
| 2026-04-29 12:59 | 42.70573 | 25.65679 | 25768 ft | 422 kts | 261° |
| 2026-04-29 12:59 | 42.70102 | 25.61709 | 25821 ft | 429 kts | 261° |
| 2026-04-29 12:59 | 42.69669 | 25.57614 | 25840 ft | 436 kts | 262° |
| 2026-04-29 12:59 | 42.69250 | 25.53501 | 25842 ft | 442 kts | 262° |
| 2026-04-29 13:00 | 42.68838 | 25.49380 | 25847 ft | 447 kts | 262° |
| 2026-04-29 13:00 | 42.68419 | 25.45160 | 25850 ft | 453 kts | 262° |
| 2026-04-29 13:00 | 42.67997 | 25.40894 | 25849 ft | 457 kts | 262° |
| 2026-04-29 13:00 | 42.67569 | 25.36590 | 25850 ft | 462 kts | 262° |
| 2026-04-29 13:01 | 42.67137 | 25.32248 | 25849 ft | 465 kts | 262° |
| 2026-04-29 13:01 | 42.66702 | 25.27880 | 25850 ft | 468 kts | 262° |
| 2026-04-29 13:01 | 42.66264 | 25.23490 | 25851 ft | 470 kts | 262° |
| 2026-04-29 13:01 | 42.65822 | 25.19079 | 25853 ft | 472 kts | 262° |
| 2026-04-29 13:02 | 42.65491 | 25.14686 | 25854 ft | 466 kts | 266° |
| 2026-04-29 13:02 | 42.65308 | 25.10276 | 25853 ft | 469 kts | 267° |
| 2026-04-29 13:02 | 42.65162 | 25.05844 | 25857 ft | 471 kts | 268° |
| 2026-04-29 13:02 | 42.65012 | 25.01384 | 25850 ft | 473 kts | 267° |
| 2026-04-29 13:03 | 42.64820 | 24.96892 | 25854 ft | 476 kts | 265° |
| 2026-04-29 13:03 | 42.64271 | 24.92501 | 25845 ft | 478 kts | 258° |
| 2026-04-29 13:03 | 42.63620 | 24.88061 | 25845 ft | 479 kts | 261° |
| 2026-04-29 13:03 | 42.63192 | 24.83561 | 25852 ft | 480 kts | 262° |
| 2026-04-29 13:04 | 42.62568 | 24.79098 | 25857 ft | 482 kts | 259° |
| 2026-04-29 13:04 | 42.62080 | 24.74600 | 25853 ft | 482 kts | 263° |
| 2026-04-29 13:04 | 42.61509 | 24.70107 | 25850 ft | 483 kts | 259° |
| 2026-04-29 13:04 | 42.60969 | 24.65601 | 25851 ft | 484 kts | 263° |
| 2026-04-29 13:05 | 42.60435 | 24.61091 | 25856 ft | 485 kts | 259° |
| 2026-04-29 13:05 | 42.59834 | 24.56579 | 25852 ft | 486 kts | 262° |
| 2026-04-29 13:05 | 42.59341 | 24.52026 | 25851 ft | 487 kts | 260° |
| 2026-04-29 13:05 | 42.58717 | 24.47508 | 25852 ft | 488 kts | 260° |
| 2026-04-29 13:06 | 42.58204 | 24.42956 | 25858 ft | 488 kts | 262° |
| 2026-04-29 13:06 | 42.57619 | 24.38419 | 25852 ft | 489 kts | 259° |
| 2026-04-29 13:06 | 42.57046 | 24.33877 | 25847 ft | 489 kts | 261° |
| 2026-04-29 13:06 | 42.56508 | 24.29325 | 25851 ft | 489 kts | 260° |
| 2026-04-29 13:07 | 42.55904 | 24.24788 | 25800 ft | 490 kts | 261° |
| 2026-04-29 13:07 | 42.55512 | 24.20218 | 24950 ft | 492 kts | 267° |
| 2026-04-29 13:07 | 42.55590 | 24.15694 | 23468 ft | 453 kts | 278° |
| 2026-04-29 13:07 | 42.56593 | 24.11956 | 21591 ft | 422 kts | 298° |
| 2026-04-29 13:08 | 42.58543 | 24.08984 | 20418 ft | 421 kts | 318° |
| 2026-04-29 13:08 | 42.60676 | 24.06510 | 20351 ft | 385 kts | 319° |
| 2026-04-29 13:08 | 42.62591 | 24.03913 | 18753 ft | 396 kts | 308° |
| 2026-04-29 13:08 | 42.64174 | 24.00946 | 18253 ft | 377 kts | 304° |
| 2026-04-29 13:09 | 42.65584 | 23.98071 | 17991 ft | 354 kts | 302° |
| 2026-04-29 13:09 | 42.66572 | 23.95132 | 17728 ft | 334 kts | 283° |
| 2026-04-29 13:09 | 42.66844 | 23.92040 | 17052 ft | 328 kts | 272° |
| 2026-04-29 13:09 | 42.66872 | 23.88934 | 16040 ft | 331 kts | 270° |
| 2026-04-29 13:10 | 42.66968 | 23.85703 | 13969 ft | 356 kts | 274° |
| 2026-04-29 13:10 | 42.67213 | 23.82318 | 11366 ft | 336 kts | 276° |
| 2026-04-29 13:10 | 42.67424 | 23.79364 | 8806 ft | 301 kts | 274° |
| 2026-04-29 13:10 | 42.67557 | 23.76745 | 7605 ft | 252 kts | 272° |
| 2026-04-29 13:11 | 42.67662 | 23.74567 | 6692 ft | 219 kts | 276° |
| 2026-04-29 13:11 | 42.67843 | 23.72689 | 6211 ft | 175 kts | 276° |
| 2026-04-29 13:11 | 42.67975 | 23.71298 | 5943 ft | 129 kts | 276° |
| 2026-04-29 13:11 | 42.68048 | 23.70115 | 5623 ft | 133 kts | 271° |
| 2026-04-29 13:12 | 42.68060 | 23.68923 | 5308 ft | 119 kts | 270° |
| 2026-04-29 13:12 | 42.68061 | 23.67807 | 4867 ft | 118 kts | 271° |
| 2026-04-29 13:12 | 42.68109 | 23.66691 | 4404 ft | 118 kts | 275° |
| 2026-04-29 13:12 | 42.68183 | 23.65579 | 4002 ft | 122 kts | 275° |
| 2026-04-29 13:13 | 42.68263 | 23.64385 | 4116 ft | 119 kts | 275° |
| 2026-04-29 13:13 | 42.68336 | 23.63195 | 3981 ft | 137 kts | 275° |
| 2026-04-29 13:13 | 42.68411 | 23.61854 | 4055 ft | 145 kts | 275° |
| 2026-04-29 13:13 | 42.68516 | 23.60472 | 4148 ft | 149 kts | 276° |
| 2026-04-29 13:14 | 42.68636 | 23.59036 | 4059 ft | 160 kts | 275° |
| 2026-04-29 13:14 | 42.68736 | 23.57490 | 3810 ft | 162 kts | 275° |
| 2026-04-29 13:14 | 42.68827 | 23.56011 | 3638 ft | 151 kts | 274° |
| 2026-04-29 13:14 | 42.68892 | 23.54616 | 3521 ft | 145 kts | 272° |
| 2026-04-29 13:15 | 42.68939 | 23.53259 | 3407 ft | 143 kts | 273° |
| 2026-04-29 13:15 | 42.69035 | 23.51901 | 3191 ft | 146 kts | 276° |
| 2026-04-29 13:15 | 42.69145 | 23.50545 | 2888 ft | 141 kts | 274° |
| 2026-04-29 13:15 | 42.69212 | 23.49208 | 2511 ft | 147 kts | 274° |
| 2026-04-29 13:16 | 42.69270 | 23.47875 | 2386 ft | 141 kts | 274° |
| 2026-04-29 13:16 | 42.69342 | 23.46635 | 2198 ft | 142 kts | 275° |
| 2026-04-29 13:16 | 42.69431 | 23.45232 | 2002 ft | 154 kts | 277° |
| 2026-04-29 13:16 | 42.69521 | 23.43807 | 1800 ft | 141 kts | 277° |
| 2026-04-29 13:17 | 42.69587 | 23.42731 | 1749 ft | 77 kts | 276° |